createdAt,value
2019-03-15T00:00:28.459Z,3.70
2019-03-15T00:03:09.544Z,3.30
2019-03-15T00:05:50.398Z,3.13
2019-03-15T00:08:31.382Z,3.40
2019-03-15T00:11:11.829Z,2.57
2019-03-15T00:13:52.690Z,3.47
2019-03-15T00:16:33.503Z,2.97
2019-03-15T00:19:13.868Z,2.93
2019-03-15T00:21:54.434Z,2.70
2019-03-15T00:24:35.384Z,2.60
2019-03-15T00:27:16.249Z,2.37
2019-03-15T00:29:56.493Z,2.30
2019-03-15T00:32:37.393Z,2.67
2019-03-15T00:35:18.366Z,2.50
2019-03-15T00:37:59.734Z,2.33
2019-03-15T00:40:40.478Z,2.33
2019-03-15T00:43:21.422Z,2.40
2019-03-15T00:46:01.895Z,2.53
2019-03-15T00:48:42.438Z,2.90
2019-03-15T00:51:23.117Z,3.07
2019-03-15T00:54:04.355Z,2.47
2019-03-15T00:56:45.030Z,2.23
2019-03-15T00:59:25.763Z,2.67
2019-03-15T01:02:06.734Z,2.73
2019-03-15T01:04:47.159Z,2.90
2019-03-15T01:07:27.978Z,2.10
2019-03-15T01:10:08.910Z,2.27
2019-03-15T01:12:49.768Z,2.67
2019-03-15T01:15:30.510Z,1.67
2019-03-15T01:18:11.169Z,1.87
2019-03-15T01:20:52.221Z,2.20
2019-03-15T01:23:32.857Z,2.40
2019-03-15T01:26:13.742Z,2.27
2019-03-15T01:28:54.522Z,2.17
2019-03-15T01:31:35.430Z,1.93
2019-03-15T01:34:15.765Z,3.30
2019-03-15T01:36:56.830Z,2.20
2019-03-15T01:39:37.557Z,3.00
2019-03-15T01:42:18.177Z,2.40
2019-03-15T01:44:59.206Z,2.63
2019-03-15T01:47:39.645Z,2.87
2019-03-15T01:50:20.225Z,2.07
2019-03-15T01:53:00.877Z,3.33
2019-03-15T01:55:41.667Z,3.30
2019-03-15T01:58:22.680Z,2.53
2019-03-15T02:01:04.543Z,2.70
2019-03-15T02:03:45.826Z,2.50
2019-03-15T02:06:26.208Z,2.00
2019-03-15T02:09:09.327Z,3.03
2019-03-15T02:11:50.314Z,2.30
2019-03-15T02:14:31.377Z,2.10
2019-03-15T02:17:12.214Z,2.43
2019-03-15T02:19:53.273Z,2.67
2019-03-15T02:22:34.428Z,2.57
2019-03-15T02:25:15.306Z,2.50
2019-03-15T02:27:56.570Z,2.47
2019-03-15T02:30:37.522Z,2.80
2019-03-15T02:33:18.579Z,2.80
2019-03-15T02:35:59.242Z,2.63
2019-03-15T02:38:40.148Z,2.37
2019-03-15T02:41:21.067Z,2.47
2019-03-15T02:44:02.135Z,2.17
2019-03-15T02:46:43.141Z,2.03
2019-03-15T02:49:23.762Z,2.00
2019-03-15T02:52:04.744Z,2.50
2019-03-15T02:54:45.157Z,2.27
2019-03-15T02:57:25.915Z,2.40
2019-03-15T03:00:06.465Z,2.63
2019-03-15T03:02:46.903Z,3.20
2019-03-15T03:05:27.570Z,2.60
2019-03-15T03:08:08.325Z,3.03
2019-03-15T03:10:49.430Z,2.63
2019-03-15T03:13:30.727Z,2.30
2019-03-15T03:16:11.747Z,2.50
2019-03-15T03:18:52.798Z,2.40
2019-03-15T03:21:33.807Z,2.40
2019-03-15T03:24:14.667Z,2.33
2019-03-15T03:26:55.458Z,2.70
2019-03-15T03:29:36.073Z,2.40
2019-03-15T03:32:04.506Z,2.47
2019-03-15T03:34:52.278Z,3.00
2019-03-15T03:37:39.728Z,2.93
2019-03-15T03:40:27.190Z,3.33
2019-03-15T03:43:14.944Z,2.13
2019-03-15T03:46:02.730Z,2.60
2019-03-15T03:48:50.497Z,2.37
2019-03-15T03:51:38.278Z,2.20
2019-03-15T03:54:26.411Z,2.70
2019-03-15T03:57:14.185Z,2.70
2019-03-15T04:00:01.985Z,2.33
2019-03-15T04:02:53.090Z,3.07
2019-03-15T04:05:32.210Z,2.70
2019-03-15T04:08:12.961Z,2.77
2019-03-15T04:10:54.118Z,1.90
2019-03-15T04:13:35.205Z,2.90
2019-03-15T04:16:16.093Z,2.70
2019-03-15T04:18:57.274Z,2.77
2019-03-15T04:21:37.722Z,2.47
2019-03-15T04:24:18.831Z,2.63
2019-03-15T04:26:59.989Z,3.43
2019-03-15T04:29:40.990Z,3.83
2019-03-15T04:32:21.942Z,3.03
2019-03-15T04:35:02.786Z,2.93
2019-03-15T04:37:43.818Z,3.07
2019-03-15T04:40:24.658Z,3.27
2019-03-15T04:43:05.397Z,4.13
2019-03-15T04:45:46.235Z,3.97
2019-03-15T04:48:26.969Z,5.00
2019-03-15T04:51:07.917Z,5.00
2019-03-15T04:53:48.751Z,5.17
2019-03-15T04:56:29.758Z,5.50
2019-03-15T04:59:10.935Z,6.03
2019-03-15T05:01:51.981Z,6.03
2019-03-15T05:04:32.723Z,6.00
2019-03-15T05:07:13.241Z,6.27
2019-03-15T05:09:54.031Z,5.50
2019-03-15T05:12:34.374Z,6.53
2019-03-15T05:15:15.045Z,7.10
2019-03-15T05:17:56.025Z,6.47
2019-03-15T05:20:36.968Z,6.63
2019-03-15T05:23:17.174Z,5.63
2019-03-15T05:25:58.098Z,5.57
2019-03-15T05:28:39.023Z,6.47
2019-03-15T05:31:19.893Z,6.27
2019-03-15T05:34:00.706Z,7.03
2019-03-15T05:36:41.778Z,6.23
2019-03-15T05:39:23.049Z,6.03
2019-03-15T05:42:03.572Z,6.27
2019-03-15T05:44:44.209Z,6.93
2019-03-15T05:47:25.329Z,6.03
2019-03-15T05:50:06.225Z,7.13
2019-03-15T05:52:46.917Z,6.40
2019-03-15T05:55:27.994Z,5.90
2019-03-15T05:58:08.828Z,6.80
2019-03-15T06:00:49.166Z,5.80
2019-03-15T06:03:29.981Z,6.10
2019-03-15T06:06:11.145Z,6.50
2019-03-15T06:08:51.773Z,6.63
2019-03-15T06:11:32.593Z,6.67
2019-03-15T06:14:13.607Z,6.30
2019-03-15T06:16:54.262Z,6.33
2019-03-15T06:19:34.780Z,6.77
2019-03-15T06:22:15.198Z,6.63
2019-03-15T06:24:55.808Z,6.10
2019-03-15T06:27:36.566Z,7.20
2019-03-15T06:30:17.553Z,6.97
2019-03-15T06:32:58.034Z,6.53
2019-03-15T06:35:38.755Z,7.37
2019-03-15T06:38:19.227Z,6.90
2019-03-15T06:41:00.583Z,7.27
2019-03-15T06:43:41.400Z,6.53
2019-03-15T06:46:21.871Z,6.40
2019-03-15T06:49:02.418Z,8.57
2019-03-15T06:51:43.295Z,7.27
2019-03-15T06:54:24.290Z,7.23
2019-03-15T06:57:04.762Z,8.33
2019-03-15T06:59:45.732Z,6.60
2019-03-15T07:02:26.265Z,7.27
2019-03-15T07:05:06.811Z,6.77
2019-03-15T07:07:47.836Z,6.60
2019-03-15T07:10:28.758Z,7.23
2019-03-15T07:13:09.780Z,6.50
2019-03-15T07:15:50.265Z,7.50
2019-03-15T07:18:31.137Z,7.17
2019-03-15T07:21:12.391Z,6.40
2019-03-15T07:23:53.394Z,6.67
2019-03-15T07:26:34.307Z,7.30
2019-03-15T07:29:14.980Z,7.60
2019-03-15T07:31:55.882Z,6.87
2019-03-15T07:34:37.012Z,6.33
2019-03-15T07:37:17.637Z,5.80
2019-03-15T07:39:57.891Z,7.23
2019-03-15T07:42:38.600Z,6.93
2019-03-15T07:45:19.869Z,6.60
2019-03-15T07:48:00.342Z,7.23
2019-03-15T07:50:41.141Z,6.97
2019-03-15T07:53:21.755Z,7.37
2019-03-15T07:56:02.251Z,7.17
2019-03-15T07:58:43.052Z,7.07
2019-03-15T08:01:24.218Z,7.43
2019-03-15T08:04:16.163Z,7.60
2019-03-15T08:06:47.822Z,7.27
2019-03-15T08:09:28.725Z,7.17
2019-03-15T08:12:09.181Z,7.57
2019-03-15T08:14:49.838Z,7.63
2019-03-15T08:17:30.678Z,7.63
2019-03-15T08:20:11.474Z,6.77
2019-03-15T08:22:52.545Z,7.27
2019-03-15T08:25:33.293Z,7.90
2019-03-15T08:28:13.942Z,7.87
2019-03-15T08:30:54.489Z,8.20
2019-03-15T08:33:35.346Z,8.37
2019-03-15T08:36:16.246Z,7.77
2019-03-15T08:38:57.639Z,8.40
2019-03-15T08:41:38.336Z,8.17
2019-03-15T08:44:19.309Z,8.10
2019-03-15T08:47:00.354Z,8.20
2019-03-15T08:49:40.563Z,7.73
2019-03-15T08:52:21.269Z,8.20
2019-03-15T08:55:05.373Z,7.70
2019-03-15T08:57:45.249Z,8.30
2019-03-15T09:00:26.365Z,8.30
2019-03-15T09:03:06.786Z,8.87
2019-03-15T09:05:47.905Z,9.63
2019-03-15T09:08:29.191Z,9.73
2019-03-15T09:11:10.018Z,9.83
2019-03-15T09:13:50.738Z,10.17
2019-03-15T09:16:31.138Z,9.93
2019-03-15T09:19:12.058Z,10.03
2019-03-15T09:21:52.617Z,10.13
2019-03-15T09:24:33.673Z,10.37
2019-03-15T09:27:02.123Z,9.60
2019-03-15T09:29:49.887Z,9.70
2019-03-15T09:32:37.927Z,9.23
2019-03-15T09:35:25.711Z,10.47
2019-03-15T09:38:13.725Z,9.20
2019-03-15T09:41:01.534Z,8.33
2019-03-15T09:43:49.350Z,8.67
2019-03-15T09:46:37.128Z,8.10
2019-03-15T09:49:24.919Z,8.73
2019-03-15T09:52:12.723Z,6.80
2019-03-15T09:55:00.508Z,6.20
2019-03-15T09:57:48.264Z,5.20
2019-03-15T10:00:36.073Z,5.57
2019-03-15T10:03:23.841Z,5.70
2019-03-15T10:06:15.713Z,5.30
2019-03-15T10:09:01.427Z,4.70
2019-03-15T10:11:49.190Z,4.93
2019-03-15T10:14:30.655Z,5.23
2019-03-15T10:17:11.351Z,4.20
2019-03-15T10:19:52.458Z,4.93
2019-03-15T10:22:33.205Z,3.80
2019-03-15T10:25:13.865Z,4.87
2019-03-15T10:27:54.502Z,4.80
2019-03-15T10:30:35.101Z,4.10
2019-03-15T10:33:15.676Z,4.30
2019-03-15T10:35:56.305Z,4.70
2019-03-15T10:38:37.385Z,4.83
2019-03-15T10:41:18.235Z,4.93
2019-03-15T10:43:59.194Z,5.53
2019-03-15T10:46:40.497Z,5.33
2019-03-15T10:49:21.610Z,4.90
2019-03-15T10:52:02.388Z,5.37
2019-03-15T10:54:43.163Z,5.63
2019-03-15T10:57:23.394Z,6.50
2019-03-15T11:00:04.489Z,6.67
2019-03-15T11:02:44.947Z,5.93
2019-03-15T11:05:26.115Z,6.63
2019-03-15T11:08:07.006Z,6.53
2019-03-15T11:10:47.468Z,6.47
2019-03-15T11:13:28.373Z,6.90
2019-03-15T11:16:09.143Z,6.20
2019-03-15T11:18:49.614Z,6.50
2019-03-15T11:21:30.266Z,6.43
2019-03-15T11:24:11.055Z,11.27
2019-03-15T11:26:51.738Z,7.30
2019-03-15T11:29:32.175Z,6.17
2019-03-15T11:32:12.791Z,7.30
2019-03-15T11:34:53.641Z,7.33
2019-03-15T11:37:34.338Z,6.30
2019-03-15T11:40:14.961Z,7.60
2019-03-15T11:42:55.525Z,7.23
2019-03-15T11:45:36.550Z,7.80
2019-03-15T11:54:04.793Z,7.60
2019-03-15T11:56:52.587Z,6.87
2019-03-15T11:59:40.362Z,7.60
2019-03-15T12:02:28.122Z,6.20
2019-03-15T12:05:16.005Z,7.00
2019-03-15T12:08:03.838Z,6.03
2019-03-15T12:10:51.598Z,6.00
2019-03-15T12:13:39.382Z,5.53
2019-03-15T12:16:27.173Z,5.87
2019-03-15T12:19:14.957Z,4.50
2019-03-15T12:22:06.577Z,5.50
2019-03-15T12:24:52.244Z,5.13
2019-03-15T12:27:40.021Z,5.37
2019-03-15T12:30:27.806Z,4.90
2019-03-15T12:33:15.570Z,4.30
2019-03-15T12:36:03.622Z,4.50
2019-03-15T12:38:53.138Z,4.23
2019-03-15T12:41:40.913Z,3.43
2019-03-15T12:44:28.682Z,3.57
2019-03-15T12:47:16.774Z,3.30
2019-03-15T12:49:57.878Z,3.60
2019-03-15T12:52:47.258Z,3.13
2019-03-15T12:55:20.673Z,3.60
2019-03-15T12:58:01.575Z,2.90
2019-03-15T13:00:42.158Z,3.30
2019-03-15T13:03:23.004Z,3.50
2019-03-15T13:06:03.575Z,3.27
2019-03-15T13:08:47.270Z,3.50
2019-03-15T13:11:27.228Z,3.60
2019-03-15T13:14:07.609Z,2.43
2019-03-15T13:16:51.301Z,3.83
2019-03-15T13:19:32.390Z,4.37
2019-03-15T13:22:13.474Z,2.80
2019-03-15T13:24:54.297Z,4.13
2019-03-15T13:27:35.047Z,1.90
2019-03-15T13:30:15.993Z,3.20
2019-03-15T13:32:56.953Z,3.63
2019-03-15T13:35:37.758Z,2.57
2019-03-15T13:38:19.033Z,3.27
2019-03-15T13:40:59.870Z,3.40
2019-03-15T13:43:40.814Z,2.77
2019-03-15T13:46:21.983Z,3.03
2019-03-15T13:49:02.654Z,2.50
2019-03-15T13:51:43.302Z,2.17
2019-03-15T13:54:24.076Z,2.20
2019-03-15T13:57:04.942Z,2.47
2019-03-15T13:59:45.957Z,2.70
2019-03-15T14:02:26.591Z,2.97
2019-03-15T14:05:07.447Z,2.43
2019-03-15T14:07:48.307Z,2.37
2019-03-15T14:10:29.172Z,2.53
2019-03-15T14:13:12.017Z,2.43
2019-03-15T14:15:52.288Z,2.90
2019-03-15T14:18:33.057Z,2.57
2019-03-15T14:21:16.877Z,2.43
2019-03-15T14:23:57.528Z,2.40
2019-03-15T14:26:38.114Z,2.97
2019-03-15T14:29:19.204Z,2.47
2019-03-15T14:31:59.575Z,2.70
2019-03-15T14:34:40.111Z,3.07
2019-03-15T14:37:20.659Z,2.60
2019-03-15T14:40:01.162Z,2.90
2019-03-15T14:42:41.674Z,2.77
2019-03-15T14:45:22.408Z,2.30
2019-03-15T14:48:03.022Z,3.43
2019-03-15T14:50:43.893Z,3.30
2019-03-15T14:53:24.637Z,3.50
2019-03-15T14:56:05.594Z,3.30
2019-03-15T14:58:46.208Z,2.20
2019-03-15T15:01:27.176Z,2.43
2019-03-15T15:04:08.414Z,2.30
2019-03-15T15:06:49.214Z,6.33
2019-03-15T15:09:30.182Z,2.67
2019-03-15T15:12:10.783Z,2.90
2019-03-15T15:14:51.766Z,3.47
2019-03-15T15:17:32.203Z,3.33
2019-03-15T15:20:13.226Z,2.87
2019-03-15T15:22:55.265Z,3.13
2019-03-15T15:25:35.690Z,3.40
2019-03-15T15:28:16.567Z,4.07
2019-03-15T15:30:57.562Z,3.43
2019-03-15T15:33:38.505Z,4.07
2019-03-15T15:36:19.245Z,2.33
2019-03-15T15:39:00.048Z,3.97
2019-03-15T15:41:41.022Z,2.13
2019-03-15T15:44:22.038Z,3.33
2019-03-15T15:47:03.095Z,2.37
2019-03-15T15:49:43.839Z,4.00
2019-03-15T15:52:24.466Z,3.40
2019-03-15T15:55:05.666Z,2.93
2019-03-15T15:57:46.408Z,4.20
2019-03-15T16:00:27.183Z,3.60
2019-03-15T16:03:07.833Z,3.60
2019-03-15T16:05:48.964Z,4.13
2019-03-15T16:08:29.352Z,3.37
2019-03-15T16:11:10.158Z,4.00
2019-03-15T16:13:50.909Z,4.63
2019-03-15T16:16:31.647Z,4.40
2019-03-15T16:19:12.807Z,3.17
2019-03-15T16:21:53.566Z,2.80
2019-03-15T16:24:34.499Z,3.13
2019-03-15T16:27:15.606Z,3.93
2019-03-15T16:29:56.308Z,3.93
2019-03-15T16:32:36.919Z,4.20
2019-03-15T16:35:17.648Z,3.17
2019-03-15T16:37:58.403Z,4.03
2019-03-15T16:40:38.964Z,4.60
2019-03-15T16:43:07.478Z,4.40
2019-03-15T16:45:55.282Z,5.13
2019-03-15T16:48:43.093Z,2.70
2019-03-15T16:51:30.886Z,3.30
2019-03-15T16:53:59.442Z,2.83
2019-03-15T16:56:47.209Z,4.33
2019-03-15T16:59:34.692Z,4.47
2019-03-15T17:02:22.498Z,4.67
2019-03-15T17:05:10.914Z,4.70
2019-03-15T17:07:58.992Z,4.20
2019-03-15T17:10:46.766Z,4.93
2019-03-15T17:13:34.564Z,4.20
2019-03-15T17:16:22.707Z,4.27
2019-03-15T17:19:10.493Z,5.03
2019-03-15T17:21:58.303Z,5.27
2019-03-15T17:24:46.411Z,3.97
2019-03-15T17:27:34.196Z,4.63
2019-03-15T17:30:21.989Z,5.33
2019-03-15T17:33:05.899Z,3.70
2019-03-15T17:35:45.360Z,3.53
2019-03-15T17:38:26.247Z,4.87
2019-03-15T17:41:06.906Z,5.13
2019-03-15T17:43:47.859Z,5.40
2019-03-15T17:46:28.734Z,4.53
2019-03-15T17:49:09.755Z,6.03
2019-03-15T17:51:50.367Z,3.63
2019-03-15T17:54:31.245Z,4.17
2019-03-15T17:57:12.160Z,5.33
2019-03-15T17:59:52.565Z,6.07
2019-03-15T18:02:33.209Z,4.57
2019-03-15T18:05:13.486Z,3.90
2019-03-15T18:07:53.946Z,4.50
2019-03-15T18:10:34.751Z,4.23
2019-03-15T18:13:15.936Z,5.63
2019-03-15T18:15:56.736Z,5.70
2019-03-15T18:18:37.438Z,5.73
2019-03-15T18:21:18.230Z,5.37
2019-03-15T18:23:58.723Z,7.30
2019-03-15T18:26:39.729Z,5.20
2019-03-15T18:29:26.216Z,5.27
2019-03-15T18:32:03.283Z,6.10
2019-03-15T18:34:44.155Z,5.70
2019-03-15T18:37:24.751Z,5.90
2019-03-15T18:40:05.798Z,6.97
2019-03-15T18:42:46.670Z,6.93
2019-03-15T18:45:27.518Z,4.70
2019-03-15T18:48:08.050Z,4.83
2019-03-15T18:50:48.718Z,4.90
2019-03-15T18:53:29.729Z,6.17
2019-03-15T18:56:10.826Z,3.80
2019-03-15T18:58:51.643Z,6.47
2019-03-15T19:01:32.301Z,5.20
2019-03-15T19:04:12.787Z,4.40
2019-03-15T19:06:53.594Z,5.03
2019-03-15T19:09:34.134Z,5.57
2019-03-15T19:12:14.566Z,6.33
2019-03-15T19:14:55.149Z,4.83
2019-03-15T19:17:35.863Z,5.30
2019-03-15T19:20:16.266Z,3.60
2019-03-15T19:22:57.201Z,6.40
2019-03-15T19:25:38.179Z,3.57
2019-03-15T19:28:19.252Z,5.07
2019-03-15T19:31:00.455Z,5.87
2019-03-15T19:33:40.820Z,5.07
2019-03-15T19:36:21.983Z,6.03
2019-03-15T19:39:02.713Z,6.17
2019-03-15T19:41:43.470Z,6.73
2019-03-15T19:44:23.955Z,5.57
2019-03-15T19:47:04.427Z,4.53
2019-03-15T19:49:45.444Z,6.40
2019-03-15T19:52:26.230Z,6.47
2019-03-15T19:55:06.687Z,4.40
2019-03-15T19:57:47.679Z,6.27
2019-03-15T20:00:28.582Z,3.77
2019-03-15T20:03:09.336Z,5.83
2019-03-15T20:05:50.093Z,6.03
2019-03-15T20:08:31.270Z,4.00
2019-03-15T20:11:12.174Z,4.87
2019-03-15T20:13:52.770Z,5.43
2019-03-15T20:16:33.394Z,6.40
2019-03-15T20:19:13.926Z,6.70
2019-03-15T20:21:54.689Z,6.57
2019-03-15T20:24:36.637Z,5.30
2019-03-15T20:27:17.309Z,4.77
2019-03-15T20:29:58.026Z,5.70
2019-03-15T20:32:38.771Z,6.50
2019-03-15T20:35:28.387Z,6.47
2019-03-15T20:38:16.403Z,6.03
2019-03-15T20:41:06.307Z,4.47
2019-03-15T20:43:54.101Z,5.60
2019-03-15T20:46:42.008Z,6.13
2019-03-15T20:49:29.785Z,6.80
2019-03-15T20:52:17.994Z,5.43
2019-03-15T20:55:06.253Z,6.57
2019-03-15T20:57:54.035Z,6.70
2019-03-15T21:00:42.182Z,5.20
2019-03-15T21:03:30.215Z,5.77
2019-03-15T21:06:18.094Z,6.07
2019-03-15T21:09:06.918Z,6.63
2019-03-15T21:11:54.722Z,6.37
2019-03-15T21:14:42.514Z,5.60
2019-03-15T21:17:30.565Z,5.50
2019-03-15T21:20:22.197Z,5.83
2019-03-15T21:23:08.735Z,6.37
2019-03-15T21:25:49.685Z,5.27
2019-03-15T21:28:30.503Z,6.17
2019-03-15T21:31:11.505Z,5.07
2019-03-15T21:33:52.253Z,5.63
2019-03-15T21:36:33.299Z,5.53
2019-03-15T21:39:14.018Z,6.03
2019-03-15T21:41:54.785Z,5.63
2019-03-15T21:44:35.887Z,5.40
2019-03-15T21:47:16.919Z,5.67
2019-03-15T21:49:57.858Z,5.13
2019-03-15T21:52:38.606Z,5.77
2019-03-15T21:55:19.786Z,3.97
2019-03-15T21:58:00.707Z,5.30
2019-03-15T22:00:41.505Z,4.70
2019-03-15T22:03:22.329Z,5.97
2019-03-15T22:06:02.847Z,6.00
2019-03-15T22:08:43.698Z,6.70
2019-03-15T22:11:24.294Z,6.73
2019-03-15T22:14:05.336Z,4.83
2019-03-15T22:16:46.466Z,5.77
2019-03-15T22:19:27.763Z,6.23
2019-03-15T22:22:08.324Z,6.23
2019-03-15T22:24:48.925Z,4.67
2019-03-15T22:27:29.458Z,5.23
2019-03-15T22:30:10.400Z,6.03
2019-03-15T22:32:50.977Z,5.43
2019-03-15T22:35:32.042Z,5.57
2019-03-15T22:38:25.217Z,5.87
2019-03-15T22:40:55.772Z,5.30
2019-03-15T22:43:36.671Z,5.97
2019-03-15T22:46:17.292Z,6.37
2019-03-15T22:48:58.582Z,7.20
2019-03-15T22:51:39.365Z,3.90
2019-03-15T22:54:20.294Z,5.67
2019-03-15T22:57:01.147Z,7.67
2019-03-15T22:59:42.174Z,6.47
2019-03-15T23:02:22.997Z,6.27
2019-03-15T23:05:03.720Z,4.30
2019-03-15T23:07:44.299Z,6.67
2019-03-15T23:10:25.200Z,6.27
2019-03-15T23:13:06.043Z,6.10
2019-03-15T23:15:46.986Z,4.40
2019-03-15T23:18:27.442Z,5.87
2019-03-15T23:21:08.255Z,6.50
2019-03-15T23:23:48.682Z,5.43
2019-03-15T23:26:29.333Z,6.40
2019-03-15T23:29:10.274Z,6.77
2019-03-15T23:31:51.025Z,6.07
2019-03-15T23:34:32.056Z,5.53
2019-03-15T23:37:12.713Z,6.37
2019-03-15T23:39:54.038Z,6.60
2019-03-15T23:42:34.754Z,6.50
2019-03-15T23:45:15.383Z,5.63
2019-03-15T23:47:55.891Z,5.20
2019-03-15T23:50:36.919Z,5.77
2019-03-15T23:53:17.242Z,4.73
2019-03-15T23:55:58.162Z,4.40
2019-03-15T23:58:39.280Z,5.10
